sensor_id;sensor_type;location;lat;lon;timestamp;temperature;humidity
70456;DHT22;57916;51.996;5.180;2023-04-01T00:01:21;14.30;78.60
70456;DHT22;57916;51.996;5.180;2023-04-01T00:03:48;14.30;78.40
70456;DHT22;57916;51.996;5.180;2023-04-01T00:06:17;14.30;78.30
70456;DHT22;57916;51.996;5.180;2023-04-01T00:08:45;14.30;78.30
70456;DHT22;57916;51.996;5.180;2023-04-01T00:11:13;14.20;78.30
70456;DHT22;57916;51.996;5.180;2023-04-01T00:13:40;14.20;78.30
70456;DHT22;57916;51.996;5.180;2023-04-01T00:16:08;14.30;78.40
70456;DHT22;57916;51.996;5.180;2023-04-01T00:18:47;14.20;78.30
70456;DHT22;57916;51.996;5.180;2023-04-01T00:21:15;14.20;78.20
70456;DHT22;57916;51.996;5.180;2023-04-01T00:23:42;14.20;78.00
70456;DHT22;57916;51.996;5.180;2023-04-01T00:26:10;14.20;78.00
70456;DHT22;57916;51.996;5.180;2023-04-01T00:28:39;14.10;78.10
70456;DHT22;57916;51.996;5.180;2023-04-01T00:31:08;14.10;78.10
70456;DHT22;57916;51.996;5.180;2023-04-01T00:33:36;14.10;78.10
70456;DHT22;57916;51.996;5.180;2023-04-01T00:36:19;14.10;78.00
70456;DHT22;57916;51.996;5.180;2023-04-01T00:38:46;14.10;78.00
70456;DHT22;57916;51.996;5.180;2023-04-01T00:41:15;14.10;78.10
70456;DHT22;57916;51.996;5.180;2023-04-01T00:43:45;14.00;78.10
70456;DHT22;57916;51.996;5.180;2023-04-01T00:46:12;14.00;78.00
70456;DHT22;57916;51.996;5.180;2023-04-01T00:48:43;14.00;78.00
70456;DHT22;57916;51.996;5.180;2023-04-01T00:51:16;14.00;78.00
70456;DHT22;57916;51.996;5.180;2023-04-01T00:53:45;13.90;78.10
70456;DHT22;57916;51.996;5.180;2023-04-01T00:56:17;13.90;78.30
70456;DHT22;57916;51.996;5.180;2023-04-01T00:58:51;13.90;78.10
70456;DHT22;57916;51.996;5.180;2023-04-01T01:01:21;13.90;78.20
70456;DHT22;57916;51.996;5.180;2023-04-01T01:03:49;13.90;78.30
70456;DHT22;57916;51.996;5.180;2023-04-01T01:06:46;13.80;78.30
70456;DHT22;57916;51.996;5.180;2023-04-01T01:14:46;13.80;78.60
70456;DHT22;57916;51.996;5.180;2023-04-01T01:32:19;13.70;78.70
70456;DHT22;57916;51.996;5.180;2023-04-01T01:35:24;13.70;78.80
70456;DHT22;57916;51.996;5.180;2023-04-01T01:37:56;13.60;78.70
70456;DHT22;57916;51.996;5.180;2023-04-01T01:40:27;13.60;78.70
70456;DHT22;57916;51.996;5.180;2023-04-01T01:42:59;13.60;78.70
70456;DHT22;57916;51.996;5.180;2023-04-01T01:45:29;13.60;78.70
70456;DHT22;57916;51.996;5.180;2023-04-01T01:48:00;13.60;78.80
70456;DHT22;57916;51.996;5.180;2023-04-01T01:50:28;13.60;78.90
70456;DHT22;57916;51.996;5.180;2023-04-01T01:53:06;13.60;78.90
70456;DHT22;57916;51.996;5.180;2023-04-01T01:55:37;13.60;78.90
70456;DHT22;57916;51.996;5.180;2023-04-01T02:00:35;13.50;79.10
70456;DHT22;57916;51.996;5.180;2023-04-01T02:03:03;13.60;79.20
70456;DHT22;57916;51.996;5.180;2023-04-01T02:05:31;13.60;79.10
70456;DHT22;57916;51.996;5.180;2023-04-01T02:08:15;13.50;79.10
70456;DHT22;57916;51.996;5.180;2023-04-01T02:10:56;13.60;79.10
70456;DHT22;57916;51.996;5.180;2023-04-01T02:13:35;13.60;79.10
70456;DHT22;57916;51.996;5.180;2023-04-01T02:16:13;13.60;79.10
70456;DHT22;57916;51.996;5.180;2023-04-01T02:18:44;13.60;78.80
70456;DHT22;57916;51.996;5.180;2023-04-01T02:21:12;13.60;79.00
70456;DHT22;57916;51.996;5.180;2023-04-01T02:23:40;13.60;79.00
70456;DHT22;57916;51.996;5.180;2023-04-01T02:26:08;13.50;78.90
70456;DHT22;57916;51.996;5.180;2023-04-01T02:28:38;13.50;78.90
70456;DHT22;57916;51.996;5.180;2023-04-01T02:31:06;13.60;78.80
70456;DHT22;57916;51.996;5.180;2023-04-01T02:33:34;13.50;78.70
70456;DHT22;57916;51.996;5.180;2023-04-01T02:36:02;13.50;78.80
70456;DHT22;57916;51.996;5.180;2023-04-01T02:38:29;13.50;78.70
70456;DHT22;57916;51.996;5.180;2023-04-01T02:40:59;13.60;78.80
70456;DHT22;57916;51.996;5.180;2023-04-01T02:43:27;13.50;78.80
70456;DHT22;57916;51.996;5.180;2023-04-01T02:45:55;13.50;78.60
70456;DHT22;57916;51.996;5.180;2023-04-01T02:48:22;13.50;78.70
70456;DHT22;57916;51.996;5.180;2023-04-01T02:50:49;13.50;78.70
70456;DHT22;57916;51.996;5.180;2023-04-01T02:53:16;13.50;78.80
70456;DHT22;57916;51.996;5.180;2023-04-01T02:55:43;13.50;78.90
70456;DHT22;57916;51.996;5.180;2023-04-01T02:58:11;13.50;79.90
70456;DHT22;57916;51.996;5.180;2023-04-01T03:00:38;13.50;78.90
70456;DHT22;57916;51.996;5.180;2023-04-01T03:03:06;13.50;78.80
70456;DHT22;57916;51.996;5.180;2023-04-01T03:05:33;13.50;78.80
70456;DHT22;57916;51.996;5.180;2023-04-01T03:08:01;13.50;78.80
70456;DHT22;57916;51.996;5.180;2023-04-01T03:10:28;13.60;78.80
70456;DHT22;57916;51.996;5.180;2023-04-01T03:12:55;13.60;78.90
70456;DHT22;57916;51.996;5.180;2023-04-01T03:15:22;13.60;78.70
70456;DHT22;57916;51.996;5.180;2023-04-01T03:17:49;13.50;78.70
70456;DHT22;57916;51.996;5.180;2023-04-01T03:20:16;13.50;78.80
70456;DHT22;57916;51.996;5.180;2023-04-01T03:22:43;13.50;78.90
70456;DHT22;57916;51.996;5.180;2023-04-01T03:25:10;13.50;79.10
70456;DHT22;57916;51.996;5.180;2023-04-01T03:27:37;13.50;79.10
70456;DHT22;57916;51.996;5.180;2023-04-01T03:30:05;13.50;79.20
70456;DHT22;57916;51.996;5.180;2023-04-01T03:32:38;13.50;79.20
70456;DHT22;57916;51.996;5.180;2023-04-01T03:35:06;13.50;79.40
70456;DHT22;57916;51.996;5.180;2023-04-01T03:37:33;13.50;79.50
70456;DHT22;57916;51.996;5.180;2023-04-01T03:40:00;13.50;79.60
70456;DHT22;57916;51.996;5.180;2023-04-01T03:42:27;13.50;79.60
70456;DHT22;57916;51.996;5.180;2023-04-01T03:44:54;13.50;79.60
70456;DHT22;57916;51.996;5.180;2023-04-01T03:47:21;13.50;79.70
70456;DHT22;57916;51.996;5.180;2023-04-01T03:49:48;13.50;79.70
70456;DHT22;57916;51.996;5.180;2023-04-01T03:52:15;13.50;79.80
70456;DHT22;57916;51.996;5.180;2023-04-01T03:54:42;13.50;79.80
70456;DHT22;57916;51.996;5.180;2023-04-01T03:57:09;13.40;79.90
70456;DHT22;57916;51.996;5.180;2023-04-01T03:59:36;13.40;80.00
70456;DHT22;57916;51.996;5.180;2023-04-01T04:02:04;13.40;80.00
70456;DHT22;57916;51.996;5.180;2023-04-01T04:04:32;13.40;80.10
70456;DHT22;57916;51.996;5.180;2023-04-01T04:06:59;13.40;80.20
70456;DHT22;57916;51.996;5.180;2023-04-01T04:09:30;13.40;80.40
70456;DHT22;57916;51.996;5.180;2023-04-01T04:11:57;13.50;80.40
70456;DHT22;57916;51.996;5.180;2023-04-01T04:14:24;13.50;80.40
70456;DHT22;57916;51.996;5.180;2023-04-01T04:16:51;13.50;80.50
70456;DHT22;57916;51.996;5.180;2023-04-01T04:19:19;13.60;80.60
70456;DHT22;57916;51.996;5.180;2023-04-01T04:21:46;13.60;80.40
70456;DHT22;57916;51.996;5.180;2023-04-01T04:24:13;13.70;80.30
70456;DHT22;57916;51.996;5.180;2023-04-01T04:26:58;13.70;80.20
70456;DHT22;57916;51.996;5.180;2023-04-01T04:29:25;13.80;80.10
70456;DHT22;57916;51.996;5.180;2023-04-01T04:31:52;13.90;80.00
70456;DHT22;57916;51.996;5.180;2023-04-01T04:34:19;13.90;79.90
70456;DHT22;57916;51.996;5.180;2023-04-01T04:36:46;13.90;79.80
70456;DHT22;57916;51.996;5.180;2023-04-01T04:39:14;13.90;79.80
70456;DHT22;57916;51.996;5.180;2023-04-01T04:41:42;14.00;79.70
70456;DHT22;57916;51.996;5.180;2023-04-01T04:44:09;14.00;79.70
70456;DHT22;57916;51.996;5.180;2023-04-01T04:46:36;14.00;79.70
70456;DHT22;57916;51.996;5.180;2023-04-01T04:49:11;14.00;80.40
70456;DHT22;57916;51.996;5.180;2023-04-01T04:51:39;14.00;79.50
70456;DHT22;57916;51.996;5.180;2023-04-01T04:54:06;14.10;79.40
70456;DHT22;57916;51.996;5.180;2023-04-01T04:56:56;14.10;79.30
70456;DHT22;57916;51.996;5.180;2023-04-01T04:59:25;14.10;79.10
70456;DHT22;57916;51.996;5.180;2023-04-01T05:02:01;14.10;79.10
70456;DHT22;57916;51.996;5.180;2023-04-01T05:04:29;14.10;79.00
70456;DHT22;57916;51.996;5.180;2023-04-01T05:06:55;14.20;79.00
70456;DHT22;57916;51.996;5.180;2023-04-01T05:09:23;14.20;78.80
70456;DHT22;57916;51.996;5.180;2023-04-01T05:11:50;14.20;78.80
70456;DHT22;57916;51.996;5.180;2023-04-01T05:14:18;14.20;78.80
70456;DHT22;57916;51.996;5.180;2023-04-01T05:17:01;14.20;78.70
70456;DHT22;57916;51.996;5.180;2023-04-01T05:19:28;14.20;78.60
70456;DHT22;57916;51.996;5.180;2023-04-01T05:21:55;14.20;78.60
70456;DHT22;57916;51.996;5.180;2023-04-01T05:24:22;14.30;78.50
70456;DHT22;57916;51.996;5.180;2023-04-01T05:26:50;14.30;78.50
70456;DHT22;57916;51.996;5.180;2023-04-01T05:29:17;14.30;78.40
70456;DHT22;57916;51.996;5.180;2023-04-01T05:31:46;14.30;78.30
70456;DHT22;57916;51.996;5.180;2023-04-01T05:34:14;14.30;78.30
70456;DHT22;57916;51.996;5.180;2023-04-01T05:36:41;14.30;78.30
70456;DHT22;57916;51.996;5.180;2023-04-01T05:39:09;14.30;79.10
70456;DHT22;57916;51.996;5.180;2023-04-01T05:41:37;14.30;78.20
70456;DHT22;57916;51.996;5.180;2023-04-01T05:44:05;14.30;78.20
70456;DHT22;57916;51.996;5.180;2023-04-01T05:46:41;14.20;78.30
70456;DHT22;57916;51.996;5.180;2023-04-01T05:49:20;14.20;78.40
70456;DHT22;57916;51.996;5.180;2023-04-01T05:51:48;14.30;78.30
70456;DHT22;57916;51.996;5.180;2023-04-01T05:54:16;14.30;78.30
70456;DHT22;57916;51.996;5.180;2023-04-01T05:56:44;14.20;78.20
70456;DHT22;57916;51.996;5.180;2023-04-01T05:59:14;14.20;78.20
70456;DHT22;57916;51.996;5.180;2023-04-01T06:01:41;14.20;79.00
70456;DHT22;57916;51.996;5.180;2023-04-01T06:04:14;14.20;78.30
70456;DHT22;57916;51.996;5.180;2023-04-01T06:06:42;14.20;78.20
70456;DHT22;57916;51.996;5.180;2023-04-01T06:09:31;14.20;78.20
70456;DHT22;57916;51.996;5.180;2023-04-01T06:29:18;14.10;78.40
70456;DHT22;57916;51.996;5.180;2023-04-01T06:38:11;14.10;78.30
70456;DHT22;57916;51.996;5.180;2023-04-01T06:40:57;14.10;78.10
70456;DHT22;57916;51.996;5.180;2023-04-01T06:46:58;14.10;78.30
70456;DHT22;57916;51.996;5.180;2023-04-01T06:50:32;14.10;78.40
70456;DHT22;57916;51.996;5.180;2023-04-01T06:53:23;14.00;78.40
70456;DHT22;57916;51.996;5.180;2023-04-01T06:56:11;14.10;78.50
70456;DHT22;57916;51.996;5.180;2023-04-01T06:58:56;14.10;78.60
70456;DHT22;57916;51.996;5.180;2023-04-01T07:01:42;14.10;78.50
70456;DHT22;57916;51.996;5.180;2023-04-01T07:04:21;14.10;78.40
70456;DHT22;57916;51.996;5.180;2023-04-01T07:06:59;14.10;78.60
70456;DHT22;57916;51.996;5.180;2023-04-01T07:09:34;14.00;78.50
70456;DHT22;57916;51.996;5.180;2023-04-01T07:15:32;14.10;78.60
70456;DHT22;57916;51.996;5.180;2023-04-01T07:18:07;14.10;78.50
70456;DHT22;57916;51.996;5.180;2023-04-01T07:20:37;14.10;78.60
70456;DHT22;57916;51.996;5.180;2023-04-01T07:23:08;14.10;78.70
70456;DHT22;57916;51.996;5.180;2023-04-01T07:26:00;14.10;78.70
70456;DHT22;57916;51.996;5.180;2023-04-01T07:28:53;14.10;78.70
70456;DHT22;57916;51.996;5.180;2023-04-01T07:31:49;14.10;78.70
70456;DHT22;57916;51.996;5.180;2023-04-01T07:42:35;14.20;78.30
70456;DHT22;57916;51.996;5.180;2023-04-01T07:50:52;14.20;78.50
70456;DHT22;57916;51.996;5.180;2023-04-01T07:53:38;14.30;78.50
70456;DHT22;57916;51.996;5.180;2023-04-01T07:56:57;14.30;78.40
70456;DHT22;57916;51.996;5.180;2023-04-01T07:59:03;14.30;78.30
70456;DHT22;57916;51.996;5.180;2023-04-01T08:05:09;14.40;78.50
70456;DHT22;57916;51.996;5.180;2023-04-01T08:08:05;14.40;78.50
70456;DHT22;57916;51.996;5.180;2023-04-01T08:14:04;14.40;78.50
70456;DHT22;57916;51.996;5.180;2023-04-01T08:22:35;14.30;78.60
70456;DHT22;57916;51.996;5.180;2023-04-01T08:25:18;14.40;79.50
70456;DHT22;57916;51.996;5.180;2023-04-01T08:27:53;14.40;78.50
70456;DHT22;57916;51.996;5.180;2023-04-01T08:30:24;14.40;78.50
70456;DHT22;57916;51.996;5.180;2023-04-01T08:32:58;14.40;78.50
70456;DHT22;57916;51.996;5.180;2023-04-01T08:35:31;14.40;78.70
70456;DHT22;57916;51.996;5.180;2023-04-01T08:38:12;14.40;78.60
70456;DHT22;57916;51.996;5.180;2023-04-01T08:41:07;14.40;78.70
70456;DHT22;57916;51.996;5.180;2023-04-01T08:47:13;14.50;78.30
70456;DHT22;57916;51.996;5.180;2023-04-01T08:55:43;14.60;78.40
70456;DHT22;57916;51.996;5.180;2023-04-01T09:01:13;14.60;78.50
70456;DHT22;57916;51.996;5.180;2023-04-01T09:32:03;15.00;78.50
70456;DHT22;57916;51.996;5.180;2023-04-01T09:43:26;15.10;79.50
70456;DHT22;57916;51.996;5.180;2023-04-01T09:46:08;15.10;78.40
70456;DHT22;57916;51.996;5.180;2023-04-01T09:52:08;15.30;78.80
70456;DHT22;57916;51.996;5.180;2023-04-01T09:54:46;15.30;78.40
70456;DHT22;57916;51.996;5.180;2023-04-01T10:09:42;15.50;76.80
70456;DHT22;57916;51.996;5.180;2023-04-01T10:27:01;15.50;77.20
70456;DHT22;57916;51.996;5.180;2023-04-01T10:47:50;16.00;77.40
70456;DHT22;57916;51.996;5.180;2023-04-01T10:50:47;16.10;77.50
70456;DHT22;57916;51.996;5.180;2023-04-01T10:56:34;16.40;77.50
70456;DHT22;57916;51.996;5.180;2023-04-01T11:12:40;16.50;74.10
70456;DHT22;57916;51.996;5.180;2023-04-01T11:18:20;16.50;74.00
70456;DHT22;57916;51.996;5.180;2023-04-01T11:23:54;16.30;74.00
70456;DHT22;57916;51.996;5.180;2023-04-01T11:35:39;16.20;75.90
70456;DHT22;57916;51.996;5.180;2023-04-01T11:44:30;16.70;78.50
70456;DHT22;57916;51.996;5.180;2023-04-01T11:47:40;16.90;78.10
70456;DHT22;57916;51.996;5.180;2023-04-01T11:50:20;17.10;75.60
70456;DHT22;57916;51.996;5.180;2023-04-01T11:58:43;17.20;74.40
70456;DHT22;57916;51.996;5.180;2023-04-01T12:12:48;17.40;73.40
70456;DHT22;57916;51.996;5.180;2023-04-01T12:15:48;17.40;73.30
70456;DHT22;57916;51.996;5.180;2023-04-01T12:33:13;17.00;72.40
70456;DHT22;57916;51.996;5.180;2023-04-01T12:44:54;16.90;74.70
70456;DHT22;57916;51.996;5.180;2023-04-01T12:47:40;16.90;74.10
70456;DHT22;57916;51.996;5.180;2023-04-01T12:50:28;16.90;74.20
70456;DHT22;57916;51.996;5.180;2023-04-01T12:55:56;16.80;73.80
70456;DHT22;57916;51.996;5.180;2023-04-01T13:15:05;16.70;73.80
70456;DHT22;57916;51.996;5.180;2023-04-01T13:20:44;16.60;73.60
70456;DHT22;57916;51.996;5.180;2023-04-01T13:25:51;16.50;74.20
70456;DHT22;57916;51.996;5.180;2023-04-01T13:42:49;16.60;73.80
70456;DHT22;57916;51.996;5.180;2023-04-01T13:45:21;16.60;74.00
70456;DHT22;57916;51.996;5.180;2023-04-01T13:51:13;16.70;73.90
70456;DHT22;57916;51.996;5.180;2023-04-01T14:18:59;16.10;74.00
70456;DHT22;57916;51.996;5.180;2023-04-01T14:21:41;16.10;73.80
70456;DHT22;57916;51.996;5.180;2023-04-01T14:29:56;15.90;74.70
70456;DHT22;57916;51.996;5.180;2023-04-01T14:32:36;15.90;74.60
70456;DHT22;57916;51.996;5.180;2023-04-01T14:35:26;15.80;75.00
70456;DHT22;57916;51.996;5.180;2023-04-01T14:38:02;15.80;75.40
70456;DHT22;57916;51.996;5.180;2023-04-01T14:41:19;15.80;75.40
70456;DHT22;57916;51.996;5.180;2023-04-01T14:46:33;15.70;75.50
70456;DHT22;57916;51.996;5.180;2023-04-01T14:49:19;15.70;75.60
70456;DHT22;57916;51.996;5.180;2023-04-01T14:51:48;15.70;75.60
70456;DHT22;57916;51.996;5.180;2023-04-01T14:54:32;15.70;75.90
70456;DHT22;57916;51.996;5.180;2023-04-01T14:57:16;15.60;76.10
70456;DHT22;57916;51.996;5.180;2023-04-01T15:00:00;15.70;76.30
70456;DHT22;57916;51.996;5.180;2023-04-01T15:05:55;15.70;76.40
70456;DHT22;57916;51.996;5.180;2023-04-01T15:14:19;15.70;76.30
70456;DHT22;57916;51.996;5.180;2023-04-01T15:20:04;15.70;76.30
70456;DHT22;57916;51.996;5.180;2023-04-01T15:25:22;15.60;76.40
70456;DHT22;57916;51.996;5.180;2023-04-01T15:28:18;15.60;76.80
70456;DHT22;57916;51.996;5.180;2023-04-01T15:35:46;15.50;77.70
70456;DHT22;57916;51.996;5.180;2023-04-01T15:43:43;15.60;75.90
70456;DHT22;57916;51.996;5.180;2023-04-01T16:03:19;15.40;76.90
70456;DHT22;57916;51.996;5.180;2023-04-01T16:06:07;15.40;75.70
70456;DHT22;57916;51.996;5.180;2023-04-01T16:20:25;15.10;76.70
70456;DHT22;57916;51.996;5.180;2023-04-01T16:23:12;15.20;76.90
70456;DHT22;57916;51.996;5.180;2023-04-01T16:25:44;15.20;76.50
70456;DHT22;57916;51.996;5.180;2023-04-01T16:28:34;15.10;76.30
70456;DHT22;57916;51.996;5.180;2023-04-01T16:31:12;15.10;76.40
70456;DHT22;57916;51.996;5.180;2023-04-01T16:36:34;15.00;76.40
70456;DHT22;57916;51.996;5.180;2023-04-01T16:44:26;15.00;76.80
70456;DHT22;57916;51.996;5.180;2023-04-01T16:46:55;14.90;76.50
70456;DHT22;57916;51.996;5.180;2023-04-01T16:49:54;14.90;76.60
70456;DHT22;57916;51.996;5.180;2023-04-01T16:55:18;14.90;76.60
70456;DHT22;57916;51.996;5.180;2023-04-01T16:57:52;14.90;76.20
70456;DHT22;57916;51.996;5.180;2023-04-01T17:03:08;14.80;76.00
70456;DHT22;57916;51.996;5.180;2023-04-01T17:05:55;14.70;76.00
70456;DHT22;57916;51.996;5.180;2023-04-01T17:08:39;14.70;76.00
70456;DHT22;57916;51.996;5.180;2023-04-01T17:14:03;14.60;75.80
70456;DHT22;57916;51.996;5.180;2023-04-01T17:23:23;14.40;76.20
70456;DHT22;57916;51.996;5.180;2023-04-01T17:25:42;14.30;76.40
70456;DHT22;57916;51.996;5.180;2023-04-01T17:28:24;14.20;76.50
70456;DHT22;57916;51.996;5.180;2023-04-01T17:31:10;14.20;76.60
70456;DHT22;57916;51.996;5.180;2023-04-01T17:36:48;14.10;76.50
70456;DHT22;57916;51.996;5.180;2023-04-01T17:42:10;14.00;76.70
70456;DHT22;57916;51.996;5.180;2023-04-01T17:47:34;14.00;77.00
70456;DHT22;57916;51.996;5.180;2023-04-01T17:50:24;14.00;77.00
70456;DHT22;57916;51.996;5.180;2023-04-01T17:56:11;14.00;76.80
70456;DHT22;57916;51.996;5.180;2023-04-01T17:58:50;13.90;76.80
70456;DHT22;57916;51.996;5.180;2023-04-01T18:04:41;13.80;76.60
70456;DHT22;57916;51.996;5.180;2023-04-01T18:16:37;13.80;77.00
70456;DHT22;57916;51.996;5.180;2023-04-01T18:21:50;13.70;76.90
70456;DHT22;57916;51.996;5.180;2023-04-01T18:29:55;13.70;76.70
70456;DHT22;57916;51.996;5.180;2023-04-01T18:32:43;13.60;76.60
70456;DHT22;57916;51.996;5.180;2023-04-01T18:35:24;13.60;76.80
70456;DHT22;57916;51.996;5.180;2023-04-01T18:38:15;13.60;76.70
70456;DHT22;57916;51.996;5.180;2023-04-01T18:43:51;13.50;76.60
70456;DHT22;57916;51.996;5.180;2023-04-01T18:46:34;13.40;76.70
70456;DHT22;57916;51.996;5.180;2023-04-01T18:54:30;13.40;76.60
70456;DHT22;57916;51.996;5.180;2023-04-01T18:57:08;13.40;76.50
70456;DHT22;57916;51.996;5.180;2023-04-01T18:59:44;13.40;76.60
70456;DHT22;57916;51.996;5.180;2023-04-01T19:05:02;13.40;76.50
70456;DHT22;57916;51.996;5.180;2023-04-01T19:22:04;13.20;76.30
70456;DHT22;57916;51.996;5.180;2023-04-01T19:24:20;13.20;76.20
70456;DHT22;57916;51.996;5.180;2023-04-01T19:35:27;13.30;76.40
70456;DHT22;57916;51.996;5.180;2023-04-01T19:37:59;13.30;76.40
70456;DHT22;57916;51.996;5.180;2023-04-01T19:49:12;13.30;76.10
70456;DHT22;57916;51.996;5.180;2023-04-01T19:52:20;13.30;75.90
70456;DHT22;57916;51.996;5.180;2023-04-01T19:58:04;13.20;75.70
70456;DHT22;57916;51.996;5.180;2023-04-01T20:00:51;13.20;76.00
70456;DHT22;57916;51.996;5.180;2023-04-01T20:14:32;13.10;75.70
70456;DHT22;57916;51.996;5.180;2023-04-01T20:20:03;13.00;75.40
70456;DHT22;57916;51.996;5.180;2023-04-01T20:28:14;12.90;75.60
70456;DHT22;57916;51.996;5.180;2023-04-01T20:34:09;12.90;75.40
70456;DHT22;57916;51.996;5.180;2023-04-01T20:42:10;12.60;75.50
70456;DHT22;57916;51.996;5.180;2023-04-01T20:45:17;12.60;75.80
70456;DHT22;57916;51.996;5.180;2023-04-01T20:48:02;12.60;75.60
70456;DHT22;57916;51.996;5.180;2023-04-01T21:01:51;12.30;75.90
70456;DHT22;57916;51.996;5.180;2023-04-01T21:04:28;12.30;75.90
70456;DHT22;57916;51.996;5.180;2023-04-01T21:12:53;12.30;75.70
70456;DHT22;57916;51.996;5.180;2023-04-01T21:23:51;12.20;75.80
70456;DHT22;57916;51.996;5.180;2023-04-01T21:29:45;12.10;75.40
70456;DHT22;57916;51.996;5.180;2023-04-01T21:35:06;12.10;75.40
70456;DHT22;57916;51.996;5.180;2023-04-01T21:49:24;11.90;75.20
70456;DHT22;57916;51.996;5.180;2023-04-01T21:54:50;11.90;75.40
70456;DHT22;57916;51.996;5.180;2023-04-01T22:00:24;11.80;75.60
70456;DHT22;57916;51.996;5.180;2023-04-01T22:16:48;11.70;76.10
70456;DHT22;57916;51.996;5.180;2023-04-01T22:23:01;11.70;76.20
70456;DHT22;57916;51.996;5.180;2023-04-01T22:25:21;11.70;76.30
70456;DHT22;57916;51.996;5.180;2023-04-01T22:28:00;11.70;75.90
70456;DHT22;57916;51.996;5.180;2023-04-01T22:30:34;11.70;75.80
70456;DHT22;57916;51.996;5.180;2023-04-01T22:36:17;11.70;75.80
70456;DHT22;57916;51.996;5.180;2023-04-01T22:55:31;11.80;75.00
70456;DHT22;57916;51.996;5.180;2023-04-01T22:58:28;11.80;74.80
70456;DHT22;57916;51.996;5.180;2023-04-01T23:01:01;11.70;74.80
70456;DHT22;57916;51.996;5.180;2023-04-01T23:03:34;11.70;74.90
70456;DHT22;57916;51.996;5.180;2023-04-01T23:06:04;11.70;74.80
70456;DHT22;57916;51.996;5.180;2023-04-01T23:11:26;11.70;75.10
70456;DHT22;57916;51.996;5.180;2023-04-01T23:14:07;11.70;74.80
70456;DHT22;57916;51.996;5.180;2023-04-01T23:17:12;11.70;74.90
70456;DHT22;57916;51.996;5.180;2023-04-01T23:20:03;11.60;74.80
70456;DHT22;57916;51.996;5.180;2023-04-01T23:22:35;11.60;75.00
70456;DHT22;57916;51.996;5.180;2023-04-01T23:33:28;11.50;74.90
70456;DHT22;57916;51.996;5.180;2023-04-01T23:35:59;11.50;74.60
70456;DHT22;57916;51.996;5.180;2023-04-01T23:38:38;11.40;74.60
70456;DHT22;57916;51.996;5.180;2023-04-01T23:41:06;11.40;74.70
70456;DHT22;57916;51.996;5.180;2023-04-01T23:43:36;11.40;74.60
70456;DHT22;57916;51.996;5.180;2023-04-01T23:46:06;11.30;74.70
70456;DHT22;57916;51.996;5.180;2023-04-01T23:48:40;11.30;74.70
70456;DHT22;57916;51.996;5.180;2023-04-01T23:51:25;11.30;74.80
70456;DHT22;57916;51.996;5.180;2023-04-01T23:54:03;11.20;74.60
70456;DHT22;57916;51.996;5.180;2023-04-01T23:56:46;11.20;74.70
70456;DHT22;57916;51.996;5.180;2023-04-01T23:59:23;11.20;74.90
